Time;durP1;ratioP1;P1;durP2;ratioP2;P2;SDS_P1;SDS_P2;PMS_P1;PMS_P2;Temp;Humidity;BMP_temperature;BMP_pressure;BME280_temperature;BME280_humidity;BME280_pressure;Samples;Min_cycle;Max_cycle;Signal;HPM_P1;HPM_P2
2023/12/08 00:02:24;;;;;;;36.85;8.27;;;13.30;99.90;;;;;;5071707;28;20132;-71
2023/12/08 00:04:50;;;;;;;39.78;8.98;;;13.30;99.90;;;;;;5071722;28;20028;-70
2023/12/08 00:07:16;;;;;;;39.55;8.85;;;13.20;99.90;;;;;;5071787;28;20040;-71
2023/12/08 00:09:42;;;;;;;40.20;9.00;;;13.20;99.90;;;;;;5071567;28;20625;-71
2023/12/08 00:12:08;;;;;;;39.45;8.60;;;13.20;99.90;;;;;;5072063;28;20471;-71
2023/12/08 00:14:33;;;;;;;34.00;7.78;;;13.10;99.90;;;;;;5072105;28;20469;-71
2023/12/08 00:16:59;;;;;;;39.05;8.50;;;13.10;99.90;;;;;;5071783;28;20066;-71
2023/12/08 00:19:25;;;;;;;37.78;8.48;;;13.10;99.90;;;;;;5071397;28;20024;-71
2023/12/08 00:21:50;;;;;;;34.63;8.02;;;13.00;99.90;;;;;;5071783;28;20020;-71
2023/12/08 00:24:16;;;;;;;39.55;8.95;;;13.00;99.90;;;;;;5071997;28;20048;-71
2023/12/08 00:26:42;;;;;;;38.20;7.97;;;13.00;99.90;;;;;;5071879;28;20556;-71
2023/12/08 00:29:08;;;;;;;36.17;8.05;;;13.00;99.90;;;;;;5071469;28;20036;-71
2023/12/08 00:31:33;;;;;;;40.75;8.40;;;13.00;99.90;;;;;;5071354;28;20394;-71
2023/12/08 00:33:59;;;;;;;35.13;8.18;;;13.00;99.90;;;;;;5071159;28;20028;-71
2023/12/08 00:36:25;;;;;;;38.03;7.80;;;13.00;99.90;;;;;;5071757;28;20021;-71
2023/12/08 00:38:51;;;;;;;33.88;7.60;;;13.00;99.90;;;;;;5071477;28;20111;-71
2023/12/08 00:41:16;;;;;;;38.05;7.85;;;13.00;99.90;;;;;;5071449;28;20116;-71
2023/12/08 00:43:42;;;;;;;41.17;8.27;;;13.00;99.90;;;;;;5071170;28;20093;-71
2023/12/08 00:46:09;;;;;;;40.20;8.50;;;12.90;99.90;;;;;;5071663;28;20147;-71
2023/12/08 00:48:35;;;;;;;36.22;8.35;;;13.00;99.90;;;;;;5070777;28;20033;-71
2023/12/08 00:51:00;;;;;;;41.00;8.45;;;12.90;99.90;;;;;;5073339;28;20540;-71
2023/12/08 00:53:26;;;;;;;38.83;8.45;;;12.90;99.90;;;;;;5074808;28;20527;-71
2023/12/08 00:55:52;;;;;;;42.47;8.77;;;12.90;99.90;;;;;;5075105;28;20491;-71
2023/12/08 00:58:17;;;;;;;39.42;8.63;;;13.00;99.90;;;;;;5075178;28;20033;-71
2023/12/08 01:00:43;;;;;;;47.15;9.20;;;13.00;99.90;;;;;;5074945;28;20112;-71
2023/12/08 01:03:09;;;;;;;50.38;10.00;;;13.00;99.90;;;;;;5074805;28;20047;-71
2023/12/08 01:05:35;;;;;;;46.08;10.52;;;13.20;99.90;;;;;;5075150;28;20025;-71
2023/12/08 01:08:00;;;;;;;54.63;10.02;;;13.50;99.90;;;;;;5074964;28;20926;-71
2023/12/08 01:10:26;;;;;;;51.70;10.98;;;13.60;99.90;;;;;;5074881;28;20472;-71
2023/12/08 01:12:52;;;;;;;58.55;11.73;;;13.60;99.90;;;;;;5074822;28;20372;-71
2023/12/08 01:15:18;;;;;;;61.45;11.18;;;13.80;99.90;;;;;;5074801;28;20485;-71
2023/12/08 01:17:43;;;;;;;55.10;10.93;;;13.90;99.90;;;;;;5074771;28;20487;-71
2023/12/08 01:20:09;;;;;;;51.72;10.75;;;14.00;99.90;;;;;;5074677;28;20020;-71
2023/12/08 01:22:35;;;;;;;53.67;11.88;;;14.00;99.90;;;;;;5074427;28;20422;-72
2023/12/08 01:25:01;;;;;;;60.85;11.93;;;14.00;99.90;;;;;;5074641;28;20031;-72
2023/12/08 01:27:27;;;;;;;56.15;11.10;;;14.00;99.90;;;;;;5074834;28;20021;-71
2023/12/08 01:29:53;;;;;;;47.53;10.10;;;14.20;99.90;;;;;;5074429;28;20048;-71
2023/12/08 01:32:18;;;;;;;47.75;10.57;;;14.10;99.90;;;;;;5072480;28;20059;-71
2023/12/08 01:34:44;;;;;;;54.92;10.18;;;14.10;99.90;;;;;;5074500;28;20028;-71
2023/12/08 01:37:10;;;;;;;46.30;10.57;;;14.10;99.90;;;;;;5074260;28;20017;-71
2023/12/08 01:39:35;;;;;;;48.28;10.80;;;14.00;99.90;;;;;;5074241;28;20112;-71
2023/12/08 01:42:02;;;;;;;50.78;11.35;;;13.90;99.90;;;;;;5074062;28;20060;-71
2023/12/08 01:44:28;;;;;;;55.90;11.15;;;13.80;99.90;;;;;;5073738;28;20056;-71
2023/12/08 01:46:53;;;;;;;43.63;9.85;;;13.70;99.90;;;;;;5073662;28;20492;-71
2023/12/08 01:49:20;;;;;;;44.78;9.27;;;13.60;99.90;;;;;;5073992;28;20025;-71
2023/12/08 01:51:46;;;;;;;51.20;10.18;;;13.50;99.90;;;;;;5073602;28;20052;-71
2023/12/08 01:54:14;;;;;;;45.83;9.88;;;13.50;99.90;;;;;;5074158;28;20558;-71
2023/12/08 01:56:40;;;;;;;50.72;10.25;;;13.50;99.90;;;;;;5074300;28;20027;-71
2023/12/08 01:59:08;;;;;;;40.35;8.90;;;13.40;99.90;;;;;;5073658;28;20021;-70
2023/12/08 02:01:34;;;;;;;43.00;8.55;;;13.40;99.90;;;;;;5073152;28;20095;-71
2023/12/08 02:04:01;;;;;;;42.30;9.70;;;13.40;99.90;;;;;;5073656;28;20063;-71
2023/12/08 02:06:27;;;;;;;43.13;8.93;;;13.40;99.90;;;;;;5073640;28;20111;-71
2023/12/08 02:08:52;;;;;;;38.78;8.68;;;13.30;99.90;;;;;;5073907;28;20086;-70
2023/12/08 02:11:18;;;;;;;38.00;8.40;;;13.30;99.90;;;;;;5073486;28;20029;-70
2023/12/08 02:13:45;;;;;;;35.90;8.90;;;13.30;99.90;;;;;;5073488;28;20032;-70
2023/12/08 02:16:17;;;;;;;39.42;8.88;;;13.30;99.90;;;;;;5073238;28;20111;-70
2023/12/08 02:18:44;;;;;;;41.28;9.30;;;13.30;99.90;;;;;;5073507;28;20379;-71
2023/12/08 02:21:11;;;;;;;36.08;8.18;;;13.20;99.90;;;;;;5073277;28;20031;-70
2023/12/08 02:23:36;;;;;;;38.40;8.38;;;13.20;99.90;;;;;;5073179;28;20059;-70
2023/12/08 02:26:04;;;;;;;37.60;8.15;;;13.20;99.90;;;;;;5074059;28;20021;-70
2023/12/08 02:28:30;;;;;;;43.30;8.70;;;13.20;99.90;;;;;;5072896;28;20078;-70
2023/12/08 02:30:57;;;;;;;39.67;8.55;;;13.10;99.90;;;;;;5072819;28;20020;-70
2023/12/08 02:33:32;;;;;;;43.55;9.23;;;13.10;99.90;;;;;;5073082;28;20031;-71
2023/12/08 02:36:01;;;;;;;43.15;8.75;;;13.10;99.90;;;;;;5073139;28;20031;-70
2023/12/08 02:38:28;;;;;;;41.92;9.38;;;13.10;99.90;;;;;;5073015;28;20025;-71
2023/12/08 02:40:56;;;;;;;43.00;9.70;;;13.10;99.90;;;;;;5072959;28;20107;-70
2023/12/08 02:43:22;;;;;;;34.85;8.95;;;13.10;99.90;;;;;;5072564;28;20051;-70
2023/12/08 02:45:47;;;;;;;43.10;8.13;;;13.10;99.90;;;;;;5072468;28;20024;-70
2023/12/08 02:48:13;;;;;;;44.00;9.48;;;13.10;99.90;;;;;;5072914;28;20020;-71
2023/12/08 02:50:40;;;;;;;45.65;9.63;;;13.10;99.90;;;;;;5072948;28;20020;-70
2023/12/08 02:53:06;;;;;;;39.85;8.85;;;13.30;99.90;;;;;;5072523;28;20036;-70
2023/12/08 02:55:32;;;;;;;41.20;9.50;;;13.50;99.90;;;;;;5072854;28;20089;-70
2023/12/08 02:57:57;;;;;;;40.30;9.63;;;13.70;99.90;;;;;;5072349;28;20031;-70
2023/12/08 03:00:23;;;;;;;40.85;9.07;;;13.70;99.90;;;;;;5072621;28;20099;-71
2023/12/08 03:02:49;;;;;;;38.40;8.80;;;13.90;99.90;;;;;;5071420;28;20037;-71
2023/12/08 03:05:14;;;;;;;38.17;8.70;;;13.90;99.90;;;;;;5072679;28;20029;-71
2023/12/08 03:07:40;;;;;;;44.55;9.93;;;13.90;99.90;;;;;;5072104;28;20111;-71
2023/12/08 03:10:06;;;;;;;45.25;8.88;;;14.00;99.90;;;;;;5072684;28;20113;-71
2023/12/08 03:12:32;;;;;;;35.60;8.32;;;14.00;99.90;;;;;;5071917;28;20020;-71
2023/12/08 03:14:58;;;;;;;41.83;9.57;;;13.90;99.90;;;;;;5072252;28;20037;-71
2023/12/08 03:17:23;;;;;;;41.25;9.02;;;13.90;99.90;;;;;;5072457;28;20104;-71
2023/12/08 03:19:49;;;;;;;37.20;8.70;;;13.90;99.90;;;;;;5072131;28;20035;-71
2023/12/08 03:22:15;;;;;;;38.25;9.60;;;13.80;99.90;;;;;;5072562;28;20389;-71
2023/12/08 03:24:40;;;;;;;41.88;9.07;;;13.80;99.90;;;;;;5072180;28;20044;-71
2023/12/08 03:27:06;;;;;;;41.08;9.40;;;13.60;99.90;;;;;;5070652;28;20097;-71
2023/12/08 03:29:32;;;;;;;40.08;9.73;;;13.40;99.90;;;;;;5072067;28;20391;-71
2023/12/08 03:31:57;;;;;;;42.72;9.50;;;13.30;99.90;;;;;;5072117;28;20022;-71
2023/12/08 03:34:23;;;;;;;39.42;9.20;;;13.20;99.90;;;;;;5072043;28;20032;-71
2023/12/08 03:36:49;;;;;;;39.00;8.32;;;13.20;99.90;;;;;;5072420;28;20032;-71
2023/12/08 03:39:14;;;;;;;38.92;8.80;;;13.10;99.90;;;;;;5072394;28;20038;-71
2023/12/08 03:41:40;;;;;;;34.78;7.95;;;13.00;99.90;;;;;;5070530;28;20063;-70
2023/12/08 03:44:05;;;;;;;34.88;7.90;;;12.90;99.90;;;;;;5071731;28;20032;-71
2023/12/08 03:46:31;;;;;;;36.33;7.60;;;12.90;99.90;;;;;;5071999;28;20105;-71
2023/12/08 03:48:57;;;;;;;34.88;8.25;;;12.80;99.90;;;;;;5072212;28;20025;-71
2023/12/08 03:51:22;;;;;;;32.28;7.80;;;12.80;99.90;;;;;;5071688;28;20025;-71
2023/12/08 03:53:50;;;;;;;34.83;7.53;;;12.80;99.90;;;;;;5072041;28;20050;-71
2023/12/08 03:56:16;;;;;;;36.97;8.65;;;12.70;99.90;;;;;;5071564;28;20372;-71
2023/12/08 03:58:41;;;;;;;32.97;7.05;;;12.70;99.90;;;;;;5071959;28;20028;-70
2023/12/08 04:01:07;;;;;;;36.53;7.28;;;12.60;99.90;;;;;;5071939;28;20033;-70
2023/12/08 04:03:33;;;;;;;35.55;7.28;;;12.60;99.90;;;;;;5071895;28;20037;-70
2023/12/08 04:05:59;;;;;;;32.22;7.07;;;12.50;99.90;;;;;;5071860;28;20039;-70
2023/12/08 04:08:24;;;;;;;32.20;7.45;;;12.60;99.90;;;;;;5071564;28;20032;-70
2023/12/08 04:10:50;;;;;;;37.33;8.27;;;12.50;99.90;;;;;;5071438;28;20029;-70
2023/12/08 04:13:16;;;;;;;30.35;7.43;;;12.40;99.90;;;;;;5071928;28;20035;-70
2023/12/08 04:15:41;;;;;;;32.47;7.88;;;12.40;99.90;;;;;;5071595;28;20032;-70
2023/12/08 04:18:07;;;;;;;30.70;7.18;;;12.30;99.90;;;;;;5072063;28;20090;-71
2023/12/08 04:20:33;;;;;;;26.33;6.45;;;12.30;99.90;;;;;;5071922;28;20016;-70
2023/12/08 04:22:59;;;;;;;29.27;7.28;;;12.30;99.90;;;;;;5071536;28;20612;-70
2023/12/08 04:25:24;;;;;;;31.55;6.93;;;12.30;99.90;;;;;;5074451;28;20028;-71
2023/12/08 04:27:50;;;;;;;33.88;7.80;;;12.20;99.90;;;;;;5075377;28;20075;-70
2023/12/08 04:30:16;;;;;;;31.67;7.15;;;12.20;99.90;;;;;;5075409;28;20054;-70
2023/12/08 04:32:42;;;;;;;26.75;6.57;;;12.20;99.90;;;;;;5075439;28;20029;-70
2023/12/08 04:35:08;;;;;;;29.75;6.93;;;12.20;99.90;;;;;;5075757;28;20032;-70
2023/12/08 04:37:33;;;;;;;31.23;6.65;;;12.30;99.90;;;;;;5075201;28;20096;-70
2023/12/08 04:39:59;;;;;;;28.60;6.78;;;12.50;99.90;;;;;;5074954;28;20020;-71
2023/12/08 04:42:24;;;;;;;24.73;6.95;;;12.60;99.90;;;;;;5074983;28;20024;-72
2023/12/08 04:44:50;;;;;;;26.77;6.63;;;12.80;99.90;;;;;;5075424;28;20024;-71
2023/12/08 04:47:16;;;;;;;26.50;5.82;;;12.80;99.90;;;;;;5075088;28;20030;-71
2023/12/08 04:49:41;;;;;;;25.17;6.22;;;13.00;99.90;;;;;;5074985;28;20453;-71
2023/12/08 04:52:07;;;;;;;24.15;5.63;;;13.00;99.90;;;;;;5075099;28;20462;-71
2023/12/08 04:54:33;;;;;;;22.98;5.32;;;13.10;99.90;;;;;;5074636;28;20043;-72
2023/12/08 04:56:58;;;;;;;23.20;5.40;;;13.00;99.90;;;;;;5075083;28;20024;-71
2023/12/08 04:59:24;;;;;;;22.38;5.15;;;13.20;99.90;;;;;;5075177;28;20043;-71
2023/12/08 05:01:51;;;;;;;22.10;5.75;;;13.20;99.90;;;;;;5075304;28;20028;-71
2023/12/08 05:04:17;;;;;;;18.42;5.85;;;13.20;99.90;;;;;;5074896;28;20039;-71
2023/12/08 05:06:44;;;;;;;17.63;4.38;;;13.20;99.90;;;;;;5074365;28;20021;-71
2023/12/08 05:09:13;;;;;;;14.15;4.30;;;13.10;99.90;;;;;;5074705;28;20024;-71
2023/12/08 05:11:38;;;;;;;13.27;3.67;;;13.00;99.90;;;;;;5074761;28;20040;-71
2023/12/08 05:14:04;;;;;;;10.82;2.90;;;13.00;99.90;;;;;;5074963;28;20024;-71
2023/12/08 05:16:30;;;;;;;13.48;3.20;;;12.90;99.90;;;;;;5074670;28;20044;-71
2023/12/08 05:18:56;;;;;;;13.48;3.30;;;12.70;99.90;;;;;;5074920;28;20518;-70
2023/12/08 05:21:21;;;;;;;11.98;2.90;;;12.70;99.90;;;;;;5074671;28;20051;-71
2023/12/08 05:23:48;;;;;;;13.10;2.97;;;12.60;99.90;;;;;;5074072;28;20047;-71
2023/12/08 05:26:13;;;;;;;12.20;2.70;;;12.60;99.90;;;;;;5074346;28;20020;-71
2023/12/08 05:28:39;;;;;;;12.77;3.25;;;12.60;99.90;;;;;;5074985;28;20039;-71
2023/12/08 05:31:05;;;;;;;13.82;2.92;;;12.50;99.90;;;;;;5073255;28;20096;-72
2023/12/08 05:33:31;;;;;;;11.90;3.08;;;12.60;99.90;;;;;;5074335;28;20119;-70
2023/12/08 05:35:56;;;;;;;11.57;2.97;;;12.50;99.90;;;;;;5073604;28;20520;-70
2023/12/08 05:38:22;;;;;;;11.63;3.00;;;12.50;99.90;;;;;;5074394;28;20043;-71
2023/12/08 05:40:48;;;;;;;13.23;3.28;;;12.50;99.90;;;;;;5074328;28;20024;-71
2023/12/08 05:43:14;;;;;;;13.52;3.47;;;12.50;99.90;;;;;;5073839;28;20051;-70
2023/12/08 05:45:40;;;;;;;11.68;3.42;;;12.50;99.90;;;;;;5073893;28;20028;-70
2023/12/08 05:48:06;;;;;;;13.88;3.28;;;12.50;99.90;;;;;;5073894;28;20122;-70
2023/12/08 05:50:31;;;;;;;15.80;3.70;;;12.50;99.90;;;;;;5073722;28;20778;-70
2023/12/08 05:52:57;;;;;;;11.98;3.55;;;12.50;99.90;;;;;;5073873;28;20060;-70
2023/12/08 05:55:23;;;;;;;11.57;3.20;;;12.50;99.90;;;;;;5073559;28;20027;-70
2023/12/08 05:57:49;;;;;;;13.32;3.38;;;12.50;99.90;;;;;;5073946;28;20081;-70
2023/12/08 06:00:17;;;;;;;14.30;3.50;;;12.40;99.90;;;;;;5074227;28;20013;-70
2023/12/08 06:02:43;;;;;;;16.80;3.35;;;12.40;99.90;;;;;;5073755;28;20060;-70
2023/12/08 06:05:10;;;;;;;13.13;3.20;;;12.40;99.90;;;;;;5074024;28;20108;-70
2023/12/08 06:07:36;;;;;;;14.82;4.25;;;12.30;99.90;;;;;;5073556;28;20494;-70
2023/12/08 06:10:03;;;;;;;15.52;3.78;;;12.30;99.90;;;;;;5073392;28;20056;-70
2023/12/08 06:12:28;;;;;;;16.00;3.97;;;12.30;99.90;;;;;;5073573;28;20039;-70
2023/12/08 06:14:59;;;;;;;15.45;3.42;;;12.20;99.90;;;;;;5073610;28;20028;-70
2023/12/08 06:17:25;;;;;;;17.25;4.25;;;12.20;99.90;;;;;;5073750;28;20044;-71
2023/12/08 06:19:50;;;;;;;16.42;3.78;;;12.20;99.90;;;;;;5073361;28;20029;-70
2023/12/08 06:22:16;;;;;;;16.95;3.45;;;12.20;99.90;;;;;;5071618;28;20467;-70
2023/12/08 06:24:42;;;;;;;17.77;4.22;;;12.30;99.90;;;;;;5073558;28;20550;-71
2023/12/08 06:27:07;;;;;;;15.52;4.13;;;12.50;99.90;;;;;;5073269;28;20518;-71
2023/12/08 06:29:33;;;;;;;17.98;3.97;;;12.50;99.90;;;;;;5073013;28;20498;-70
2023/12/08 06:31:59;;;;;;;15.15;4.28;;;12.70;99.90;;;;;;5073227;28;20391;-70
2023/12/08 06:34:24;;;;;;;17.67;4.25;;;12.70;99.90;;;;;;5073346;28;20029;-71
2023/12/08 06:36:50;;;;;;;20.45;4.63;;;12.90;99.90;;;;;;5072867;28;20024;-71
2023/12/08 06:39:16;;;;;;;18.98;4.10;;;12.90;99.90;;;;;;5073149;28;20048;-71
2023/12/08 06:41:42;;;;;;;20.40;4.97;;;12.90;99.90;;;;;;5072526;28;20029;-70
2023/12/08 06:44:07;;;;;;;21.75;4.95;;;13.00;99.90;;;;;;5073151;28;20076;-72
2023/12/08 06:46:33;;;;;;;17.40;5.38;;;13.00;99.90;;;;;;5072274;28;20070;-71
2023/12/08 06:48:59;;;;;;;21.48;5.25;;;13.00;99.90;;;;;;5070675;28;20441;-71
2023/12/08 06:51:25;;;;;;;12.10;3.92;;;13.10;99.90;;;;;;5071509;28;20021;-71
2023/12/08 06:53:50;;;;;;;15.05;4.10;;;13.00;99.90;;;;;;5072182;28;20040;-73
2023/12/08 06:56:16;;;;;;;16.15;3.88;;;12.90;99.90;;;;;;5072982;28;20078;-72
2023/12/08 06:58:42;;;;;;;13.65;3.58;;;12.80;99.90;;;;;;5071860;28;20032;-72
2023/12/08 07:01:07;;;;;;;14.73;2.97;;;12.60;99.90;;;;;;5072713;28;20024;-71
2023/12/08 07:03:33;;;;;;;12.93;3.25;;;12.60;99.90;;;;;;5072122;28;20024;-71
2023/12/08 07:05:59;;;;;;;9.80;2.92;;;12.50;99.90;;;;;;5072435;28;20028;-70
2023/12/08 07:08:24;;;;;;;13.40;3.03;;;12.40;99.90;;;;;;5072517;28;20028;-71
2023/12/08 07:10:50;;;;;;;12.85;3.42;;;12.30;99.90;;;;;;5071180;28;20387;-71
2023/12/08 07:13:16;;;;;;;12.18;3.10;;;12.30;99.90;;;;;;5072680;28;20372;-71
2023/12/08 07:15:41;;;;;;;15.48;3.80;;;12.20;99.90;;;;;;5072167;28;20021;-71
2023/12/08 07:18:07;;;;;;;14.73;3.47;;;12.20;99.90;;;;;;5071608;28;20438;-70
2023/12/08 07:20:34;;;;;;;17.45;3.92;;;12.30;99.90;;;;;;5071910;28;20021;-70
2023/12/08 07:23:00;;;;;;;16.38;3.33;;;12.30;99.90;;;;;;5072588;28;20032;-70
2023/12/08 07:25:26;;;;;;;19.38;4.10;;;12.30;99.90;;;;;;5072281;28;20379;-69
2023/12/08 07:27:52;;;;;;;15.85;4.30;;;12.30;99.90;;;;;;5072090;28;20094;-70
2023/12/08 07:30:17;;;;;;;22.15;4.57;;;12.30;99.90;;;;;;5072082;28;20020;-70
2023/12/08 07:32:43;;;;;;;19.20;4.40;;;12.30;99.90;;;;;;5071921;28;20029;-69
2023/12/08 07:35:09;;;;;;;19.45;4.70;;;12.20;99.90;;;;;;5072136;28;20082;-70
2023/12/08 07:37:40;;;;;;;18.02;4.75;;;12.20;99.90;;;;;;5072146;28;20482;-70
2023/12/08 07:40:07;;;;;;;21.90;5.07;;;12.20;99.90;;;;;;5072210;28;20463;-70
2023/12/08 07:42:33;;;;;;;21.38;5.25;;;12.20;99.90;;;;;;5071954;28;20036;-70
2023/12/08 07:44:59;;;;;;;20.05;4.85;;;12.20;99.90;;;;;;5071605;28;20545;-70
2023/12/08 07:47:24;;;;;;;19.90;4.68;;;12.20;99.90;;;;;;5070704;28;20059;-70
2023/12/08 07:49:50;;;;;;;22.52;4.93;;;12.20;99.90;;;;;;5070959;28;20028;-68
2023/12/08 07:52:16;;;;;;;19.38;4.20;;;12.20;99.90;;;;;;5071656;28;20056;-70
2023/12/08 07:54:42;;;;;;;16.33;4.50;;;12.20;99.90;;;;;;5071476;28;20449;-69
2023/12/08 07:57:07;;;;;;;17.92;4.50;;;12.20;99.90;;;;;;5071354;28;20499;-69
2023/12/08 07:59:33;;;;;;;20.30;4.53;;;12.20;99.90;;;;;;5072843;28;20105;-70
2023/12/08 08:01:59;;;;;;;17.55;4.25;;;12.20;99.90;;;;;;5075890;28;20078;-70
2023/12/08 08:04:25;;;;;;;14.57;4.15;;;12.20;99.90;;;;;;5075945;28;20446;-70
2023/12/08 08:06:51;;;;;;;19.60;4.38;;;12.20;99.90;;;;;;5075624;28;20056;-69
2023/12/08 08:09:17;;;;;;;16.67;4.63;;;12.10;99.90;;;;;;5076456;28;20040;-70
2023/12/08 08:11:43;;;;;;;21.00;4.65;;;12.10;99.90;;;;;;5075898;28;20100;-70
2023/12/08 08:14:09;;;;;;;16.95;4.50;;;12.40;99.90;;;;;;5075936;28;20112;-70
2023/12/08 08:16:34;;;;;;;14.95;4.13;;;12.70;99.90;;;;;;5075708;28;20028;-70
2023/12/08 08:19:00;;;;;;;18.42;4.55;;;12.90;99.90;;;;;;5075842;28;20031;-70
2023/12/08 08:21:26;;;;;;;18.88;4.68;;;13.00;99.90;;;;;;5075885;28;20059;-70
2023/12/08 08:23:51;;;;;;;18.67;4.80;;;13.10;99.90;;;;;;5075470;28;20032;-71
2023/12/08 08:26:17;;;;;;;18.33;4.47;;;13.20;99.90;;;;;;5075785;28;20099;-72
2023/12/08 08:28:43;;;;;;;14.10;3.80;;;13.20;99.90;;;;;;5075911;28;20032;-70
2023/12/08 08:31:09;;;;;;;17.00;4.57;;;13.30;99.90;;;;;;5075556;28;20111;-70
2023/12/08 08:33:34;;;;;;;20.13;4.38;;;13.40;99.90;;;;;;5075135;28;20021;-70
2023/12/08 08:36:01;;;;;;;13.68;4.10;;;13.40;99.90;;;;;;5075584;28;20039;-70
2023/12/08 08:38:27;;;;;;;16.33;3.78;;;13.40;99.90;;;;;;5075377;28;20415;-70
2023/12/08 08:40:52;;;;;;;14.43;3.85;;;13.50;99.90;;;;;;5075342;28;20071;-70
2023/12/08 08:43:18;;;;;;;16.20;3.72;;;13.50;99.90;;;;;;5075425;28;20036;-70
2023/12/08 08:45:44;;;;;;;11.77;3.22;;;13.20;99.90;;;;;;5075108;28;20025;-70
2023/12/08 08:48:10;;;;;;;15.30;3.30;;;13.10;99.90;;;;;;5074748;28;20025;-70
2023/12/08 08:50:35;;;;;;;10.77;3.00;;;12.90;99.90;;;;;;5075568;28;20067;-70
2023/12/08 08:53:01;;;;;;;12.50;3.40;;;12.80;99.90;;;;;;5074871;28;20040;-70
2023/12/08 08:55:27;;;;;;;13.38;3.38;;;12.70;99.90;;;;;;5075277;28;20380;-70
2023/12/08 08:57:53;;;;;;;12.82;3.65;;;12.60;99.90;;;;;;5074922;28;20025;-70
2023/12/08 09:00:21;;;;;;;11.02;3.53;;;12.60;99.90;;;;;;5074423;28;20040;-70
2023/12/08 09:02:51;;;;;;;14.48;3.78;;;12.60;99.90;;;;;;5074906;28;20055;-70
2023/12/08 09:05:18;;;;;;;11.25;3.13;;;12.70;99.90;;;;;;5075303;28;20024;-70
2023/12/08 09:07:44;;;;;;;11.50;3.22;;;12.70;99.90;;;;;;5074707;28;20489;-70
2023/12/08 09:10:10;;;;;;;10.68;3.95;;;12.70;99.90;;;;;;5074665;28;20038;-70
2023/12/08 09:12:36;;;;;;;14.75;4.60;;;12.70;99.90;;;;;;5074155;28;20111;-71
2023/12/08 09:15:03;;;;;;;11.18;3.30;;;12.70;99.90;;;;;;5074307;28;20016;-71
2023/12/08 09:17:29;;;;;;;13.07;4.30;;;12.70;99.90;;;;;;5074438;28;20024;-71
2023/12/08 09:19:55;;;;;;;16.55;3.85;;;12.80;99.90;;;;;;5074953;28;20103;-70
2023/12/08 09:22:20;;;;;;;12.85;3.03;;;12.80;99.90;;;;;;5074520;28;20029;-70
2023/12/08 09:24:46;;;;;;;9.68;2.67;;;12.70;99.90;;;;;;5074596;28;20036;-70
2023/12/08 09:27:12;;;;;;;10.98;3.13;;;12.60;99.90;;;;;;5074820;28;20064;-70
2023/12/08 09:29:37;;;;;;;12.27;2.85;;;12.40;99.90;;;;;;5073706;28;20032;-70
2023/12/08 09:32:03;;;;;;;8.02;2.30;;;12.40;99.90;;;;;;5074390;28;20151;-70
2023/12/08 09:34:29;;;;;;;14.55;3.10;;;12.40;99.90;;;;;;5074694;28;20039;-70
2023/12/08 09:36:55;;;;;;;12.55;3.25;;;12.30;99.90;;;;;;5074387;28;20028;-70
2023/12/08 09:39:21;;;;;;;10.73;2.90;;;12.30;99.90;;;;;;5074314;28;20060;-70
2023/12/08 09:41:50;;;;;;;11.13;3.35;;;12.20;99.90;;;;;;5074293;28;20101;-70
2023/12/08 09:44:16;;;;;;;15.07;3.42;;;12.20;99.90;;;;;;5073616;28;20095;-70
2023/12/08 09:46:46;;;;;;;17.45;3.65;;;12.20;99.90;;;;;;5073967;28;20041;-70
2023/12/08 09:49:22;;;;;;;14.85;3.65;;;12.30;99.90;;;;;;5074430;28;20125;-70
2023/12/08 09:51:49;;;;;;;18.95;4.05;;;12.50;99.90;;;;;;5073787;28;20044;-70
2023/12/08 09:54:15;;;;;;;14.25;4.03;;;12.50;99.90;;;;;;5074070;28;20034;-70
2023/12/08 09:56:41;;;;;;;16.83;3.92;;;12.60;99.90;;;;;;5073713;28;20112;-70
2023/12/08 09:59:08;;;;;;;18.15;3.72;;;12.70;99.90;;;;;;5073582;28;20040;-70
2023/12/08 10:01:33;;;;;;;17.80;3.53;;;12.80;99.90;;;;;;5073961;28;20092;-70
2023/12/08 10:03:59;;;;;;;14.05;3.22;;;13.10;99.90;;;;;;5074097;28;20051;-70
2023/12/08 10:06:26;;;;;;;14.30;3.60;;;13.40;99.90;;;;;;5073724;28;20020;-72
2023/12/08 10:08:51;;;;;;;12.40;3.80;;;13.50;99.90;;;;;;5072468;28;20031;-72
2023/12/08 10:11:17;;;;;;;15.23;3.85;;;13.70;99.90;;;;;;5073545;28;20032;-73
2023/12/08 10:13:43;;;;;;;15.52;3.90;;;14.00;99.90;;;;;;5073630;28;20029;-73
2023/12/08 10:16:09;;;;;;;16.92;3.80;;;14.10;99.90;;;;;;5072301;28;20050;-72
2023/12/08 10:18:36;;;;;;;14.60;4.03;;;14.30;99.90;;;;;;5073439;28;20033;-72
2023/12/08 10:21:19;;;;;;;16.35;3.70;;;14.40;99.90;;;;;;5073481;28;20048;-72
2023/12/08 10:23:46;;;;;;;11.90;3.08;;;14.10;99.90;;;;;;5073121;28;20438;-72
2023/12/08 10:26:13;;;;;;;15.95;3.15;;;13.90;99.90;;;;;;5073323;28;20403;-70
2023/12/08 10:28:39;;;;;;;17.73;3.47;;;13.60;99.90;;;;;;5073347;28;20021;-70
2023/12/08 10:31:06;;;;;;;15.68;3.10;;;13.30;99.90;;;;;;5073282;28;20053;-70
2023/12/08 10:33:31;;;;;;;18.85;3.50;;;13.00;99.90;;;;;;5073229;28;20026;-70
2023/12/08 10:35:58;;;;;;;16.08;2.83;;;12.70;99.90;;;;;;5073058;28;20442;-70
2023/12/08 10:38:24;;;;;;;14.13;3.53;;;12.70;99.90;;;;;;5073314;28;20047;-70
2023/12/08 10:40:52;;;;;;;15.02;3.53;;;12.50;99.90;;;;;;5072858;28;20029;-70
2023/12/08 10:43:25;;;;;;;15.65;3.58;;;12.20;99.90;;;;;;5072830;28;20044;-68
2023/12/08 10:45:52;;;;;;;11.05;2.90;;;12.10;99.90;;;;;;5072893;28;20078;-68
2023/12/08 10:48:22;;;;;;;7.57;2.42;;;12.00;99.90;;;;;;5072708;28;20033;-69
2023/12/08 10:50:52;;;;;;;10.20;3.00;;;12.00;99.90;;;;;;5072845;28;20028;-69
2023/12/08 10:53:20;;;;;;;12.00;2.88;;;12.00;99.90;;;;;;5072605;28;20063;-69
2023/12/08 10:55:55;;;;;;;10.20;3.20;;;12.00;99.90;;;;;;5072571;28;20021;-69
2023/12/08 10:58:22;;;;;;;9.77;2.60;;;12.00;99.90;;;;;;5072836;28;20021;-69
2023/12/08 11:00:53;;;;;;;10.70;2.80;;;12.00;99.90;;;;;;5072882;28;20017;-69
2023/12/08 11:03:30;;;;;;;13.60;3.60;;;12.00;99.90;;;;;;5072529;28;20078;-69
2023/12/08 11:06:04;;;;;;;15.45;4.40;;;12.00;99.90;;;;;;5072057;28;20029;-69
2023/12/08 11:08:31;;;;;;;14.82;4.35;;;12.00;99.90;;;;;;5072222;28;20056;-69
2023/12/08 11:10:58;;;;;;;19.98;4.45;;;12.10;99.90;;;;;;5071859;28;20028;-67
2023/12/08 11:13:34;;;;;;;10.90;3.20;;;12.00;99.90;;;;;;5072905;28;20471;-69
2023/12/08 11:16:05;;;;;;;19.15;3.17;;;12.00;99.90;;;;;;5072353;28;20024;-68
2023/12/08 11:18:35;;;;;;;15.95;3.67;;;12.10;99.90;;;;;;5072145;28;20107;-68
2023/12/08 11:21:03;;;;;;;15.48;3.83;;;12.30;99.90;;;;;;5072219;28;20521;-68
2023/12/08 11:23:29;;;;;;;18.40;3.75;;;12.40;99.90;;;;;;5071907;28;20025;-71
2023/12/08 11:26:28;;;;;;;16.65;4.15;;;12.40;99.90;;;;;;5071802;28;20028;-71
2023/12/08 11:29:18;;;;;;;17.05;4.32;;;12.50;99.90;;;;;;5033541;28;20033;-71
2023/12/08 11:31:55;;;;;;;16.95;4.40;;;12.50;99.90;;;;;;5050314;28;20029;-70
2023/12/08 11:34:30;;;;;;;19.90;4.88;;;12.60;99.90;;;;;;5048820;28;20513;-71
2023/12/08 11:36:58;;;;;;;15.98;4.07;;;12.70;99.90;;;;;;5049944;28;20021;-71
2023/12/08 11:39:42;;;;;;;21.48;4.85;;;12.70;99.90;;;;;;5050296;28;20447;-71
2023/12/08 11:42:09;;;;;;;17.95;4.35;;;12.70;99.90;;;;;;5049488;28;20056;-71
2023/12/08 11:44:45;;;;;;;15.93;4.22;;;12.70;99.90;;;;;;5049510;28;20051;-70
2023/12/08 11:47:16;;;;;;;19.38;4.88;;;12.70;99.90;;;;;;5049319;28;20047;-70
2023/12/08 11:49:48;;;;;;;21.27;5.80;;;12.80;99.90;;;;;;5049544;28;20169;-70
2023/12/08 11:52:24;;;;;;;20.90;5.18;;;13.10;99.90;;;;;;5048316;28;20041;-71
2023/12/08 11:55:19;;;;;;;18.23;4.95;;;13.40;99.90;;;;;;5048314;28;20067;-70
2023/12/08 11:57:51;;;;;;;18.70;4.63;;;13.80;99.90;;;;;;5049295;28;20049;-71
2023/12/08 12:00:22;;;;;;;21.38;4.68;;;14.00;99.90;;;;;;5049175;28;20029;-72
2023/12/08 12:02:49;;;;;;;14.40;3.70;;;14.20;99.90;;;;;;5049891;28;20025;-71
2023/12/08 12:05:16;;;;;;;10.95;2.72;;;13.90;99.90;;;;;;5050103;28;20044;-72
2023/12/08 12:07:47;;;;;;;8.50;2.25;;;13.80;99.90;;;;;;5051505;28;20067;-71
2023/12/08 12:10:15;;;;;;;10.55;2.33;;;13.80;99.90;;;;;;5051297;28;20644;-69
2023/12/08 12:12:51;;;;;;;10.10;2.65;;;13.70;99.90;;;;;;5051883;28;20096;-69
2023/12/08 12:15:19;;;;;;;8.18;2.40;;;13.80;99.90;;;;;;5051848;28;20071;-71
2023/12/08 12:17:46;;;;;;;8.50;2.58;;;13.80;99.90;;;;;;5051481;28;20057;-71
2023/12/08 12:20:12;;;;;;;8.68;2.88;;;13.70;99.90;;;;;;5051886;28;20399;-71
2023/12/08 12:22:40;;;;;;;14.50;3.45;;;13.70;99.90;;;;;;5051533;28;20025;-71
2023/12/08 12:25:10;;;;;;;13.18;3.17;;;13.60;99.90;;;;;;5051325;28;20026;-71
2023/12/08 12:27:45;;;;;;;12.32;3.47;;;13.60;99.90;;;;;;5051413;28;20040;-71
2023/12/08 12:30:11;;;;;;;13.02;3.42;;;13.50;99.90;;;;;;5051538;28;20033;-71
2023/12/08 12:32:37;;;;;;;17.77;4.22;;;13.50;99.90;;;;;;5051864;28;20032;-71
2023/12/08 12:35:04;;;;;;;17.92;3.53;;;13.50;99.90;;;;;;5051440;28;20403;-71